Time;durP1;ratioP1;P1;durP2;ratioP2;P2;SDS_P1;SDS_P2;PMS_P1;PMS_P2;Temp;Humidity;BMP_temperature;BMP_pressure;BME280_temperature;BME280_humidity;BME280_pressure;Samples;Min_cycle;Max_cycle;Signal;HPM_P1;HPM_P2
2022/04/20 00:01:51;;;;;;;5.60;5.40;;;;;;;7.03;52.91;100324.97;5056690;28;20420;-64
2022/04/20 00:04:17;;;;;;;5.60;5.40;;;;;;;7.05;53.42;100323.00;5045096;28;20033;-63
2022/04/20 00:06:42;;;;;;;5.45;5.25;;;;;;;7.10;53.08;100322.53;5048471;28;20082;-63
2022/04/20 00:09:08;;;;;;;5.60;5.40;;;;;;;7.08;52.97;100319.22;5039761;28;20112;-63
2022/04/20 00:11:34;;;;;;;5.38;5.18;;;;;;;6.98;54.82;100315.84;5052798;28;20024;-63
2022/04/20 00:13:59;;;;;;;6.60;6.30;;;;;;;6.92;55.19;100315.53;5048901;28;20028;-63
2022/04/20 00:16:25;;;;;;;5.80;5.60;;;;;;;7.01;54.29;100326.09;5041200;28;20021;-62
2022/04/20 00:18:50;;;;;;;5.45;5.25;;;;;;;7.11;52.89;100322.34;5052904;28;20021;-63
2022/04/20 00:21:16;;;;;;;5.53;5.32;;;;;;;7.14;52.68;100318.59;5052719;28;20044;-62
2022/04/20 00:23:41;;;;;;;6.15;5.85;;;;;;;7.10;54.32;100318.06;5043565;28;20108;-63
2022/04/20 00:26:07;;;;;;;5.60;5.40;;;;;;;6.91;56.80;100299.84;5052438;28;20064;-62
2022/04/20 00:28:32;;;;;;;5.80;5.60;;;;;;;7.04;54.76;100331.06;5052599;28;20025;-63
2022/04/20 00:30:58;;;;;;;5.80;5.60;;;;;;;7.11;53.63;100317.09;5035381;28;20123;-62
2022/04/20 00:33:23;;;;;;;5.80;5.60;;;;;;;7.17;53.04;100321.75;5056698;28;20021;-63
2022/04/20 00:35:50;;;;;;;5.65;5.45;;;;;;;7.11;53.36;100326.81;5052331;28;20671;-63
2022/04/20 00:38:17;;;;;;;5.70;5.50;;;;;;;7.09;52.64;100334.88;5042151;28;20039;-62
2022/04/20 00:40:47;;;;;;;5.75;5.55;;;;;;;7.01;53.36;100336.66;5047466;28;20017;-62
2022/04/20 00:43:12;;;;;;;5.97;5.70;;;;;;;6.98;52.88;100331.69;5052595;28;20021;-62
2022/04/20 00:45:40;;;;;;;5.63;5.43;;;;;;;7.04;52.57;100334.53;5039555;28;20051;-63
2022/04/20 00:48:09;;;;;;;5.70;5.50;;;;;;;7.08;52.15;100329.78;5048029;28;20423;-63
2022/04/20 00:50:35;;;;;;;5.60;5.40;;;;;;;7.11;53.03;100329.44;5051487;28;20029;-62
2022/04/20 00:53:00;;;;;;;5.68;5.47;;;;;;;7.17;52.66;100332.28;5044697;28;20468;-62
2022/04/20 00:55:26;;;;;;;5.90;5.70;;;;;;;7.18;52.86;100336.56;5052334;28;20504;-63
2022/04/20 00:57:51;;;;;;;5.90;5.65;;;;;;;7.16;53.30;100343.81;5051665;28;20079;-62
2022/04/20 01:00:17;;;;;;;6.00;5.70;;;;;;;7.07;52.61;100336.88;5046895;28;20171;-63
2022/04/20 01:02:44;;;;;;;5.45;5.25;;;;;;;7.13;51.76;100343.34;5046062;28;20038;-63
2022/04/20 01:05:09;;;;;;;5.40;5.20;;;;;;;7.17;51.90;100344.66;5040087;28;20430;-62
2022/04/20 01:07:40;;;;;;;5.78;5.57;;;;;;;7.13;51.35;100330.97;5051806;28;20028;-62
2022/04/20 01:10:06;;;;;;;5.75;5.55;;;;;;;7.12;51.45;100344.28;5051862;28;20104;-62
2022/04/20 01:12:32;;;;;;;5.55;5.35;;;;;;;7.17;51.52;100337.56;5051717;28;20504;-63
2022/04/20 01:14:58;;;;;;;5.55;5.35;;;;;;;7.15;51.15;100341.34;5051616;28;20027;-63
2022/04/20 01:17:23;;;;;;;5.80;5.60;;;;;;;7.16;52.16;100335.91;5051615;28;20104;-62
2022/04/20 01:19:49;;;;;;;5.68;5.47;;;;;;;7.17;52.12;100342.00;5048166;28;20542;-63
2022/04/20 01:22:16;;;;;;;5.70;5.50;;;;;;;7.14;50.85;100339.72;5044477;28;20039;-62
2022/04/20 01:24:41;;;;;;;5.65;5.45;;;;;;;7.16;50.18;100332.44;5051951;28;20033;-63
2022/04/20 01:27:08;;;;;;;5.78;5.57;;;;;;;7.17;50.25;100334.94;5051507;28;20362;-63
2022/04/20 01:29:34;;;;;;;5.32;5.13;;;;;;;7.20;50.70;100331.16;5051584;28;20037;-63
2022/04/20 01:32:00;;;;;;;5.70;5.50;;;;;;;7.27;50.80;100336.63;5051598;28;20033;-62
2022/04/20 01:34:25;;;;;;;5.50;5.30;;;;;;;7.20;49.81;100336.44;5064601;28;20090;-63
2022/04/20 01:36:51;;;;;;;6.03;5.75;;;;;;;7.18;50.60;100339.22;5049310;28;20098;-63
2022/04/20 01:39:16;;;;;;;5.80;5.60;;;;;;;7.19;51.15;100332.13;5036344;28;20068;-63
2022/04/20 01:41:43;;;;;;;5.60;5.40;;;;;;;7.20;51.62;100333.81;5043561;28;20049;-62
2022/04/20 01:44:09;;;;;;;6.20;5.90;;;;;;;7.20;51.26;100328.53;5051795;28;20021;-62
2022/04/20 01:46:34;;;;;;;5.93;5.63;;;;;;;7.29;51.25;100337.31;5051418;28;20025;-62
2022/04/20 01:49:01;;;;;;;5.82;5.63;;;;;;;7.27;50.42;100334.84;5051714;28;20029;-62
2022/04/20 01:54:11;;;;;;;5.78;5.55;;;;;;;7.09;52.37;100332.25;5054718;28;20485;-63
2022/04/20 01:56:37;;;;;;;5.65;5.45;;;;;;;7.13;52.24;100335.41;5039042;28;20124;-62
2022/04/20 01:59:03;;;;;;;5.90;5.70;;;;;;;7.18;52.32;100330.47;5048874;28;20051;-62
2022/04/20 02:04:13;;;;;;;5.50;5.30;;;;;;;7.15;51.55;100329.00;5061011;28;20037;-63
2022/04/20 02:06:39;;;;;;;5.60;5.40;;;;;;;7.24;51.55;100335.13;5044770;28;20036;-62
2022/04/20 02:09:04;;;;;;;5.85;5.65;;;;;;;7.21;51.75;100324.91;5053754;28;20039;-62
2022/04/20 02:11:30;;;;;;;5.80;5.60;;;;;;;7.22;52.51;100334.47;5054890;28;20039;-62
2022/04/20 02:13:55;;;;;;;5.50;5.30;;;;;;;7.16;53.36;100328.00;5052799;28;20397;-64
2022/04/20 02:16:21;;;;;;;5.65;5.43;;;;;;;7.08;53.69;100335.06;5044859;28;20029;-62
2022/04/20 02:18:47;;;;;;;5.95;5.65;;;;;;;7.08;56.03;100333.25;5044253;28;20024;-62
2022/04/20 02:21:12;;;;;;;6.03;5.72;;;;;;;7.05;54.50;100333.56;5055109;28;20044;-63
2022/04/20 02:23:38;;;;;;;5.60;5.40;;;;;;;7.03;53.57;100335.50;5054973;28;20025;-62
2022/04/20 02:26:03;;;;;;;5.75;5.55;;;;;;;6.99;55.66;100333.34;5055141;28;20057;-62
2022/04/20 02:28:29;;;;;;;5.70;5.50;;;;;;;7.03;53.94;100329.41;5054894;28;20581;-63
2022/04/20 02:30:54;;;;;;;5.72;5.53;;;;;;;7.09;52.89;100324.34;5052854;28;20059;-63
2022/04/20 02:33:20;;;;;;;6.43;6.13;;;;;;;6.97;55.84;100335.31;5058039;28;20017;-63
2022/04/20 02:35:46;;;;;;;5.57;5.38;;;;;;;6.92;56.41;100328.69;5054827;28;20025;-62
2022/04/20 02:38:14;;;;;;;6.22;5.93;;;;;;;6.98;55.54;100327.25;5054535;28;20104;-62
2022/04/20 02:40:41;;;;;;;5.55;5.35;;;;;;;7.02;55.22;100339.13;5046787;28;20125;-62
2022/04/20 02:43:07;;;;;;;5.85;5.65;;;;;;;7.05;54.85;100330.06;5049157;28;20036;-64
2022/04/20 02:45:33;;;;;;;6.05;5.75;;;;;;;7.01;53.94;100331.38;5054773;28;20032;-63
2022/04/20 02:48:02;;;;;;;5.78;5.57;;;;;;;6.96;54.86;100331.00;5053359;28;20095;-62
2022/04/20 02:50:28;;;;;;;5.82;5.63;;;;;;;6.94;53.99;100331.19;5041663;28;20128;-63
2022/04/20 02:52:54;;;;;;;5.70;5.50;;;;;;;6.91;55.15;100339.41;5040520;28;20488;-62
2022/04/20 02:55:20;;;;;;;5.53;5.32;;;;;;;6.90;54.57;100337.72;5054415;28;20419;-62
2022/04/20 02:57:45;;;;;;;5.80;5.60;;;;;;;6.87;53.81;100333.59;5065215;28;20052;-64
2022/04/20 03:00:12;;;;;;;5.63;5.43;;;;;;;6.90;53.38;100333.31;5049769;28;20075;-63
2022/04/20 03:02:37;;;;;;;5.55;5.35;;;;;;;6.95;52.76;100332.81;5045667;28;20095;-62
2022/04/20 03:05:03;;;;;;;5.50;5.30;;;;;;;6.87;52.71;100315.16;5047731;28;20117;-63
2022/04/20 03:07:30;;;;;;;5.70;5.50;;;;;;;6.76;53.32;100312.78;5053976;28;20029;-62
2022/04/20 03:09:55;;;;;;;5.80;5.60;;;;;;;6.89;53.84;100331.63;5053991;28;20028;-61
2022/04/20 03:12:21;;;;;;;5.63;5.43;;;;;;;6.90;54.73;100337.72;5054033;28;20028;-62
2022/04/20 03:14:47;;;;;;;5.60;5.40;;;;;;;6.89;54.66;100331.63;5053958;28;20017;-62
2022/04/20 03:17:12;;;;;;;5.60;5.40;;;;;;;6.89;55.29;100326.34;5044934;28;20025;-62
2022/04/20 03:19:38;;;;;;;5.68;5.47;;;;;;;6.86;55.27;100339.88;5053307;28;20472;-63
2022/04/20 03:22:03;;;;;;;6.57;6.28;;;;;;;6.71;55.66;100340.59;5044838;28;20029;-63
2022/04/20 03:24:30;;;;;;;5.60;5.40;;;;;;;6.75;55.12;100331.38;5052824;28;20025;-62
2022/04/20 03:26:55;;;;;;;5.70;5.50;;;;;;;6.85;54.88;100327.66;5053574;28;20059;-62
2022/04/20 03:29:21;;;;;;;5.70;5.50;;;;;;;6.81;54.86;100339.50;5050702;28;20061;-64
2022/04/20 03:31:46;;;;;;;6.53;6.22;;;;;;;6.81;54.38;100336.03;5043522;28;20035;-63
2022/04/20 03:34:13;;;;;;;5.70;5.50;;;;;;;6.72;56.04;100337.78;5047435;28;20044;-63
2022/04/20 03:36:38;;;;;;;5.85;5.55;;;;;;;6.68;55.63;100341.72;5044744;28;20017;-62
2022/04/20 03:39:04;;;;;;;5.60;5.40;;;;;;;6.63;55.14;100339.56;5032977;28;20091;-62
2022/04/20 03:41:30;;;;;;;5.93;5.70;;;;;;;6.58;55.23;100346.25;5033052;28;20033;-63
2022/04/20 03:43:56;;;;;;;6.32;6.03;;;;;;;6.73;55.48;100342.09;5038371;28;20025;-62
2022/04/20 03:46:22;;;;;;;6.00;5.70;;;;;;;6.76;55.29;100347.06;5049253;28;20033;-63
2022/04/20 03:48:48;;;;;;;6.18;5.88;;;;;;;6.78;54.60;100346.91;5050538;28;20025;-63
2022/04/20 03:51:13;;;;;;;7.32;6.97;;;;;;;6.78;53.22;100347.72;5047161;28;20083;-63
2022/04/20 03:53:39;;;;;;;6.30;6.00;;;;;;;6.83;52.39;100355.16;5032351;28;20568;-61
2022/04/20 03:56:05;;;;;;;6.38;6.07;;;;;;;6.86;51.30;100355.69;5046164;28;20032;-63
2022/04/20 03:58:30;;;;;;;5.95;5.70;;;;;;;6.90;50.68;100350.91;5042033;28;20546;-62
2022/04/20 04:00:56;;;;;;;6.22;5.93;;;;;;;6.97;51.29;100362.50;5052640;28;20017;-63
2022/04/20 04:03:21;;;;;;;6.30;6.00;;;;;;;6.97;51.06;100353.75;5052878;28;20025;-63
2022/04/20 04:05:47;;;;;;;5.80;5.60;;;;;;;7.02;51.15;100365.50;5043329;28;20025;-62
2022/04/20 04:08:12;;;;;;;6.28;5.97;;;;;;;6.98;51.19;100355.41;5044689;28;20611;-63
2022/04/20 04:10:38;;;;;;;6.80;6.50;;;;;;;7.08;50.91;100371.97;5046089;28;20025;-61
2022/04/20 04:13:03;;;;;;;6.68;6.38;;;;;;;7.03;51.27;100361.06;5035495;28;20040;-63
2022/04/20 04:15:29;;;;;;;5.70;5.50;;;;;;;7.10;50.92;100362.91;5049239;28;20373;-61
2022/04/20 04:17:58;;;;;;;6.13;5.82;;;;;;;7.17;51.44;100363.94;5048658;28;20029;-61
2022/04/20 04:20:27;;;;;;;5.70;5.50;;;;;;;7.30;52.50;100374.06;5038610;28;20166;-61
2022/04/20 04:22:53;;;;;;;6.13;5.82;;;;;;;7.13;52.69;100378.44;5035014;28;20029;-62
2022/04/20 04:25:19;;;;;;;6.80;6.50;;;;;;;7.10;53.43;100370.00;5033777;28;20033;-62
2022/04/20 04:27:45;;;;;;;6.40;6.10;;;;;;;7.18;53.11;100370.03;5040173;28;20029;-62
2022/04/20 04:30:11;;;;;;;6.35;6.05;;;;;;;7.23;55.02;100378.31;5056511;28;20028;-61
2022/04/20 04:32:37;;;;;;;6.85;6.55;;;;;;;7.37;54.44;100376.91;5049881;28;20048;-61
2022/04/20 04:35:03;;;;;;;6.20;5.90;;;;;;;7.54;53.10;100378.63;5055764;28;20013;-62
2022/04/20 04:37:29;;;;;;;5.70;5.50;;;;;;;7.61;52.85;100381.47;5053938;28;20017;-61
2022/04/20 04:39:55;;;;;;;6.03;5.72;;;;;;;7.73;53.61;100378.38;5053356;28;20052;-61
2022/04/20 04:42:20;;;;;;;6.10;5.80;;;;;;;7.90;54.48;100384.53;5048107;28;20164;-61
2022/04/20 04:44:46;;;;;;;7.40;7.00;;;;;;;7.93;52.58;100383.38;5048002;28;20467;-61
2022/04/20 04:49:55;;;;;;;5.77;5.57;;;;;;;8.10;52.45;100386.91;5049272;28;20124;-61
2022/04/20 04:52:21;;;;;;;6.28;5.97;;;;;;;7.77;51.52;100389.44;5051861;28;20270;-62
2022/04/20 04:54:46;;;;;;;6.20;5.90;;;;;;;7.67;52.92;100396.69;5051337;28;20033;-62
2022/04/20 04:57:12;;;;;;;6.50;6.20;;;;;;;8.29;50.74;100400.63;5052028;28;20171;-62
2022/04/20 04:59:40;;;;;;;6.18;5.88;;;;;;;8.47;52.47;100397.91;5045764;28;20033;-60
2022/04/20 05:02:06;;;;;;;7.05;6.75;;;;;;;8.85;52.10;100399.06;5037434;28;20051;-62
2022/04/20 05:04:32;;;;;;;6.82;6.53;;;;;;;8.90;50.35;100395.91;5050970;28;20021;-62
2022/04/20 05:06:58;;;;;;;6.45;6.15;;;;;;;8.90;50.11;100405.69;5050838;28;20028;-62
2022/04/20 05:09:23;;;;;;;6.30;6.00;;;;;;;9.16;49.44;100400.16;5046410;28;20112;-62
2022/04/20 05:11:49;;;;;;;6.20;5.90;;;;;;;9.16;48.93;100405.47;5051989;28;20107;-61
2022/04/20 05:14:15;;;;;;;5.97;5.78;;;;;;;9.33;48.26;100393.84;5045244;28;20481;-61
2022/04/20 05:16:41;;;;;;;5.70;5.50;;;;;;;9.58;48.11;100407.84;5050613;28;20039;-61
2022/04/20 05:19:07;;;;;;;6.07;5.82;;;;;;;9.68;47.81;100401.31;5050430;28;20025;-63
2022/04/20 05:21:32;;;;;;;6.40;6.10;;;;;;;9.71;47.24;100405.47;5051176;28;20119;-61
2022/04/20 05:23:58;;;;;;;6.13;5.82;;;;;;;9.48;47.83;100401.91;5045674;28;20083;-61
2022/04/20 05:26:25;;;;;;;6.30;6.00;;;;;;;9.26;45.05;100403.47;5041615;28;20051;-60
2022/04/20 05:28:51;;;;;;;6.70;6.40;;;;;;;8.67;44.72;100406.34;5049859;28;20029;-61
2022/04/20 05:31:17;;;;;;;5.85;5.65;;;;;;;8.31;45.37;100411.91;5044797;28;20017;-62
2022/04/20 05:33:43;;;;;;;6.72;6.43;;;;;;;7.99;46.97;100414.44;5058455;28;20048;-63
2022/04/20 05:36:09;;;;;;;5.95;5.75;;;;;;;8.72;44.97;100417.22;5046087;28;20389;-63
2022/04/20 05:41:53;;;;;;;6.00;5.80;;;;;;;8.58;43.98;100429.28;5033115;28;20072;-64
2022/04/20 05:44:12;;;;;;;7.03;6.72;;;;;;;8.99;43.17;100421.38;5049662;28;20123;-63
2022/04/20 05:46:39;;;;;;;6.20;5.90;;;;;;;8.16;44.72;100418.81;5050726;28;20087;-63
2022/04/20 05:49:05;;;;;;;5.93;5.72;;;;;;;7.88;46.38;100418.22;5051223;28;20020;-63
2022/04/20 05:51:31;;;;;;;6.07;5.82;;;;;;;8.68;45.26;100423.84;5047874;28;20365;-63
2022/04/20 05:53:57;;;;;;;7.22;6.93;;;;;;;8.94;45.35;100423.69;5040914;28;20070;-63
2022/04/20 05:56:22;;;;;;;6.00;5.80;;;;;;;9.66;43.25;100426.34;5040505;28;20041;-64
2022/04/20 05:58:50;;;;;;;6.18;5.90;;;;;;;9.78;42.40;100429.44;5051123;28;20071;-63
2022/04/20 06:01:17;;;;;;;5.85;5.65;;;;;;;9.16;43.30;100423.97;5052372;28;20032;-63
2022/04/20 06:03:42;;;;;;;6.35;6.05;;;;;;;9.02;44.12;100433.41;5051961;28;20388;-63
2022/04/20 06:06:08;;;;;;;6.40;6.10;;;;;;;10.13;42.06;100438.69;5051721;28;20028;-63
2022/04/20 06:08:34;;;;;;;6.50;6.20;;;;;;;10.23;42.40;100431.41;5051298;28;20108;-63
2022/04/20 06:11:00;;;;;;;6.00;5.80;;;;;;;10.56;41.63;100431.19;5040396;28;20507;-62
2022/04/20 06:13:27;;;;;;;6.15;5.90;;;;;;;10.88;42.15;100427.47;5052007;28;20028;-62
2022/04/20 06:15:53;;;;;;;6.20;5.90;;;;;;;11.24;41.74;100427.63;5051797;28;20388;-63
2022/04/20 06:18:19;;;;;;;6.47;6.18;;;;;;;10.91;41.74;100425.28;5047993;28;20030;-64
2022/04/20 06:20:44;;;;;;;6.45;6.15;;;;;;;11.68;39.38;100432.97;5041267;28;20032;-63
2022/04/20 06:23:10;;;;;;;7.15;6.85;;;;;;;12.13;38.19;100431.09;5046794;28;20025;-63
2022/04/20 06:25:35;;;;;;;5.93;5.72;;;;;;;11.99;38.53;100434.59;5034944;28;20366;-63
2022/04/20 06:28:02;;;;;;;5.95;5.75;;;;;;;12.26;37.07;100433.88;5038492;28;20070;-60
2022/04/20 06:30:28;;;;;;;6.18;5.93;;;;;;;12.04;37.45;100435.69;5049050;28;20028;-62
2022/04/20 06:32:53;;;;;;;7.13;6.82;;;;;;;12.40;37.85;100434.84;5045912;28;20028;-63
2022/04/20 06:35:20;;;;;;;6.40;6.10;;;;;;;12.40;38.71;100440.19;5040412;28;20017;-63
2022/04/20 06:37:45;;;;;;;6.47;6.18;;;;;;;13.07;38.26;100434.44;5050719;28;20044;-61
2022/04/20 06:40:11;;;;;;;7.38;7.07;;;;;;;13.08;37.61;100436.13;5044650;28;20041;-63
2022/04/20 06:42:36;;;;;;;7.68;7.38;;;;;;;12.80;37.55;100438.75;5042995;28;20473;-63
2022/04/20 06:45:03;;;;;;;6.38;6.07;;;;;;;12.95;37.60;100433.34;5044898;28;20110;-63
2022/04/20 06:47:29;;;;;;;6.30;6.00;;;;;;;12.82;37.63;100434.03;5039399;28;20055;-62
2022/04/20 06:49:55;;;;;;;6.50;6.20;;;;;;;13.04;37.88;100434.84;5059649;28;20027;-64
2022/04/20 07:00:33;;;;;;;6.60;6.30;;;;;;;11.46;42.89;100434.72;5051010;28;20035;-64
2022/04/20 07:03:00;;;;;;;6.57;6.28;;;;;;;12.11;42.63;100433.09;5055899;28;20273;-65
2022/04/20 07:05:26;;;;;;;6.38;6.07;;;;;;;11.77;42.78;100441.66;5047945;28;20021;-64
2022/04/20 07:07:51;;;;;;;6.10;5.90;;;;;;;11.86;42.06;100435.25;5049431;28;20035;-64
2022/04/20 07:10:18;;;;;;;5.90;5.70;;;;;;;11.76;42.88;100442.69;5052050;28;20484;-64
2022/04/20 07:12:43;;;;;;;6.50;6.20;;;;;;;12.07;42.42;100440.63;5056788;28;20021;-63
2022/04/20 07:15:09;;;;;;;7.45;7.15;;;;;;;11.96;43.13;100443.75;5039609;28;20605;-63
2022/04/20 07:17:34;;;;;;;6.70;6.40;;;;;;;11.96;43.34;100440.28;5050732;28;20109;-63
2022/04/20 07:20:01;;;;;;;6.68;6.38;;;;;;;11.93;43.35;100438.00;5049998;28;20452;-63
2022/04/20 07:22:27;;;;;;;6.53;6.22;;;;;;;11.90;43.89;100441.88;5047942;28;20048;-63
2022/04/20 07:24:52;;;;;;;6.28;5.97;;;;;;;11.31;44.55;100439.16;5044070;28;20456;-64
2022/04/20 07:27:18;;;;;;;6.60;6.30;;;;;;;12.23;43.22;100436.94;5054227;28;20431;-63
2022/04/20 07:29:43;;;;;;;7.13;6.82;;;;;;;12.26;42.42;100441.84;5051042;28;20067;-63
2022/04/20 07:32:09;;;;;;;6.72;6.43;;;;;;;12.56;41.96;100436.44;5049308;28;20144;-63
2022/04/20 07:34:34;;;;;;;6.50;6.20;;;;;;;12.09;42.58;100435.13;5050726;28;20033;-63
2022/04/20 07:37:00;;;;;;;6.10;5.90;;;;;;;12.56;41.75;100433.78;5043724;28;20017;-64
2022/04/20 07:39:25;;;;;;;6.57;6.28;;;;;;;13.05;40.95;100440.97;5061578;28;20012;-63
2022/04/20 07:41:51;;;;;;;6.50;6.20;;;;;;;12.90;40.68;100430.41;5044578;28;20029;-63
2022/04/20 07:44:16;;;;;;;6.78;6.47;;;;;;;12.98;41.52;100438.25;5049672;28;20032;-63
2022/04/20 07:46:42;;;;;;;6.10;5.90;;;;;;;12.27;43.02;100432.06;5051271;28;20064;-65
2022/04/20 07:51:52;;;;;;;7.13;6.83;;;;;;;12.36;43.08;100431.75;5045881;28;20086;-63
2022/04/20 07:54:18;;;;;;;6.38;6.07;;;;;;;12.03;43.94;100435.88;5045006;28;20266;-63
2022/04/20 07:56:43;;;;;;;6.60;6.30;;;;;;;12.23;42.71;100434.28;5045327;28;20068;-64
2022/04/20 07:59:09;;;;;;;6.90;6.60;;;;;;;11.85;42.87;100434.44;5056301;28;20070;-64
2022/04/20 08:01:34;;;;;;;6.68;6.38;;;;;;;11.51;43.26;100413.72;5047250;28;20037;-64
2022/04/20 08:04:00;;;;;;;6.30;6.00;;;;;;;12.30;42.47;100432.50;5077365;28;20041;-63
2022/04/20 08:06:27;;;;;;;6.50;6.20;;;;;;;11.93;43.49;100424.72;5051074;28;20033;-65
2022/04/20 08:08:52;;;;;;;6.90;6.60;;;;;;;11.74;43.23;100432.22;5053946;28;20454;-64
2022/04/20 08:11:18;;;;;;;6.90;6.60;;;;;;;11.81;43.45;100427.00;5044057;28;20117;-64
2022/04/20 08:16:29;;;;;;;5.90;5.70;;;;;;;11.55;43.53;100412.34;5046363;28;20024;-64
2022/04/20 08:18:54;;;;;;;6.05;5.85;;;;;;;11.53;43.82;100419.69;5044868;28;20270;-64
2022/04/20 08:21:20;;;;;;;6.80;6.50;;;;;;;11.96;42.87;100419.84;5043604;28;20078;-62
2022/04/20 08:23:45;;;;;;;6.32;6.03;;;;;;;11.81;42.96;100416.38;5048923;28;20059;-64
2022/04/20 08:26:13;;;;;;;6.30;6.00;;;;;;;11.88;43.40;100411.97;5035321;28;20024;-65
2022/04/20 08:28:39;;;;;;;6.38;6.07;;;;;;;11.61;43.41;100413.44;5044044;28;20021;-65
2022/04/20 08:31:05;;;;;;;6.35;6.05;;;;;;;11.85;43.12;100410.50;5047505;28;20028;-65
2022/04/20 08:33:30;;;;;;;6.78;6.47;;;;;;;11.37;44.38;100411.06;5047966;28;20033;-63
2022/04/20 08:35:56;;;;;;;6.40;6.10;;;;;;;11.59;43.64;100410.13;5047242;28;20399;-62
2022/04/20 08:38:22;;;;;;;6.90;6.60;;;;;;;11.31;43.97;100405.47;5049007;28;20432;-63
2022/04/20 08:40:49;;;;;;;6.70;6.40;;;;;;;11.46;43.53;100413.47;5047008;28;20033;-64
2022/04/20 08:43:15;;;;;;;7.00;6.70;;;;;;;11.19;44.28;100404.28;5044311;28;20037;-64
2022/04/20 08:45:41;;;;;;;7.45;7.15;;;;;;;11.19;44.87;100396.31;5045929;28;20541;-64
2022/04/20 08:48:07;;;;;;;6.60;6.30;;;;;;;11.59;44.21;100418.09;5049618;28;20021;-66
2022/04/20 08:50:33;;;;;;;6.30;6.00;;;;;;;11.53;44.49;100414.38;5052950;28;20416;-63
2022/04/20 08:52:58;;;;;;;6.30;6.00;;;;;;;11.93;44.54;100403.44;5053281;28;20511;-62
2022/04/20 08:55:25;;;;;;;6.38;6.07;;;;;;;12.02;43.62;100402.31;5055240;28;20017;-63
2022/04/20 08:57:55;;;;;;;7.90;7.50;;;;;;;11.82;43.61;100404.72;5044522;28;20052;-63
2022/04/20 09:00:27;;;;;;;6.72;6.43;;;;;;;12.24;43.08;100405.84;5044596;28;20032;-63
2022/04/20 09:03:00;;;;;;;7.10;6.80;;;;;;;12.54;42.57;100401.22;5047841;28;20016;-63
2022/04/20 09:05:30;;;;;;;6.05;5.82;;;;;;;12.56;41.55;100394.72;5054326;28;20036;-64
2022/04/20 09:07:57;;;;;;;6.57;6.28;;;;;;;12.76;41.42;100400.19;5058759;28;20032;-63
2022/04/20 09:10:22;;;;;;;6.28;5.97;;;;;;;12.49;41.56;100406.31;5048909;28;20112;-63
2022/04/20 09:13:04;;;;;;;6.40;6.10;;;;;;;12.40;42.16;100406.41;5043799;28;20113;-64
2022/04/20 09:15:31;;;;;;;6.38;6.07;;;;;;;12.75;42.10;100406.53;5035194;28;20080;-64
2022/04/20 09:18:06;;;;;;;6.90;6.60;;;;;;;12.60;43.02;100401.28;5043153;28;20033;-63
2022/04/20 09:20:33;;;;;;;6.97;6.68;;;;;;;12.31;44.09;100401.41;5050544;28;20395;-64
2022/04/20 09:23:03;;;;;;;6.47;6.18;;;;;;;11.95;44.65;100398.75;5049966;28;20112;-63
2022/04/20 09:25:36;;;;;;;6.70;6.40;;;;;;;11.26;45.93;100389.25;5042374;28;20035;-63
2022/04/20 09:28:03;;;;;;;6.50;6.20;;;;;;;11.11;46.10;100388.44;5041668;28;20025;-63
2022/04/20 09:30:32;;;;;;;6.72;6.43;;;;;;;11.74;44.91;100387.03;5043632;28;20048;-61
2022/04/20 09:32:58;;;;;;;6.80;6.50;;;;;;;11.85;44.65;100389.25;5048535;28;20021;-63
2022/04/20 09:35:23;;;;;;;6.75;6.45;;;;;;;12.11;43.85;100387.91;5048975;28;20102;-63
2022/04/20 09:38:07;;;;;;;6.95;6.65;;;;;;;12.58;42.93;100399.84;5044472;28;20065;-62
2022/04/20 09:40:34;;;;;;;7.30;7.00;;;;;;;12.62;43.26;100390.44;5051939;28;20633;-62
2022/04/20 09:43:04;;;;;;;6.90;6.60;;;;;;;12.77;42.63;100390.38;5049335;28;20029;-63
2022/04/20 09:45:31;;;;;;;6.63;6.32;;;;;;;12.83;42.28;100389.59;5053977;28;20021;-64
2022/04/20 09:50:47;;;;;;;8.40;8.00;;;;;;;13.05;41.15;100387.72;5039078;28;20758;-63
2022/04/20 09:53:14;;;;;;;6.50;6.20;;;;;;;13.48;40.63;100385.78;5055726;28;20057;-62
2022/04/20 09:55:40;;;;;;;6.85;6.55;;;;;;;13.30;40.64;100383.63;5047283;28;20029;-63
2022/04/20 09:58:19;;;;;;;7.05;6.75;;;;;;;13.23;41.59;100385.44;5044833;28;20057;-64
2022/04/20 10:00:49;;;;;;;6.50;6.20;;;;;;;13.25;41.28;100386.88;5041803;28;20037;-63
2022/04/20 10:03:29;;;;;;;6.50;6.20;;;;;;;13.12;41.70;100376.09;5046674;28;20039;-64
2022/04/20 10:05:56;;;;;;;7.10;6.80;;;;;;;12.30;43.37;100386.47;5030117;28;20395;-63
2022/04/20 10:08:23;;;;;;;6.55;6.25;;;;;;;12.77;42.45;100377.88;5044404;28;20399;-64
2022/04/20 10:10:51;;;;;;;7.47;7.18;;;;;;;12.83;42.21;100379.78;5059222;28;20024;-63
2022/04/20 10:13:18;;;;;;;6.40;6.10;;;;;;;12.86;42.03;100378.59;5049904;28;20025;-63
2022/04/20 10:16:06;;;;;;;6.38;6.07;;;;;;;12.71;42.11;100374.19;5052867;28;20031;-63
2022/04/20 10:18:37;;;;;;;9.27;8.88;;;;;;;12.58;42.87;100373.22;5041890;28;20052;-64
2022/04/20 10:21:06;;;;;;;6.97;6.68;;;;;;;12.62;42.38;100377.16;5046459;28;20029;-63
2022/04/20 10:23:34;;;;;;;7.43;7.13;;;;;;;12.92;41.74;100372.47;5043671;28;20112;-64
2022/04/20 10:26:00;;;;;;;7.40;7.10;;;;;;;13.25;41.03;100370.91;5051085;28;20036;-64
2022/04/20 10:28:32;;;;;;;7.00;6.70;;;;;;;12.83;41.73;100369.13;5048869;28;20041;-63
2022/04/20 10:31:09;;;;;;;7.13;6.82;;;;;;;13.40;41.98;100372.63;5049750;28;20112;-63
2022/04/20 10:33:36;;;;;;;7.00;6.70;;;;;;;12.97;40.98;100364.72;5051232;28;20055;-65
2022/04/20 10:36:04;;;;;;;6.75;6.45;;;;;;;13.30;40.76;100359.66;5053197;28;20083;-65
2022/04/20 10:38:31;;;;;;;6.50;6.20;;;;;;;12.92;41.33;100365.28;5052988;28;20033;-65
2022/04/20 10:40:57;;;;;;;6.43;6.13;;;;;;;12.97;41.81;100357.56;5056052;28;20037;-65
2022/04/20 10:43:24;;;;;;;6.53;6.22;;;;;;;13.83;40.49;100357.22;5058625;28;20024;-67
2022/04/20 10:46:11;;;;;;;6.80;6.50;;;;;;;12.84;43.13;100343.34;5054011;28;20053;-64
2022/04/20 10:49:15;;;;;;;6.45;6.15;;;;;;;13.08;43.58;100348.22;5049158;28;20066;-64
2022/04/20 10:51:42;;;;;;;6.60;6.30;;;;;;;13.13;42.50;100345.78;5053627;28;20025;-64
2022/04/20 10:54:17;;;;;;;6.57;6.28;;;;;;;13.40;41.83;100337.97;5056616;28;20044;-64
2022/04/20 10:57:08;;;;;;;6.80;6.50;;;;;;;13.35;41.57;100335.88;5053817;28;20090;-64
2022/04/20 10:59:34;;;;;;;6.60;6.30;;;;;;;13.23;41.55;100340.97;5050869;28;20032;-64
2022/04/20 11:02:03;;;;;;;6.70;6.40;;;;;;;13.23;41.49;100337.50;5048797;28;20032;-67
2022/04/20 11:04:41;;;;;;;7.18;6.88;;;;;;;12.97;42.81;100325.63;5054451;28;20036;-64
2022/04/20 11:07:07;;;;;;;6.50;6.20;;;;;;;13.72;40.77;100325.78;5047571;28;20551;-66
2022/04/20 11:09:52;;;;;;;6.28;5.97;;;;;;;14.19;39.38;100332.09;5054930;28;20029;-64
2022/04/20 11:21:09;;;;;;;6.32;6.03;;;;;;;13.98;39.12;100322.41;5057013;28;20617;-64
2022/04/20 11:23:53;;;;;;;6.70;6.40;;;;;;;13.96;37.79;100316.44;5046760;28;20134;-64
2022/04/20 11:26:34;;;;;;;6.70;6.40;;;;;;;12.71;40.11;100304.16;5051078;28;20720;-64
2022/04/20 11:29:15;;;;;;;7.15;6.85;;;;;;;14.18;38.18;100309.09;5042089;28;20257;-63
2022/04/20 11:31:45;;;;;;;6.72;6.43;;;;;;;13.86;38.39;100300.81;5051335;28;20025;-63
2022/04/20 11:34:11;;;;;;;7.28;6.97;;;;;;;12.86;40.28;100298.72;5046637;28;20036;-65
2022/04/20 11:36:45;;;;;;;6.68;6.38;;;;;;;13.48;38.98;100296.00;5055824;28;20555;-64
2022/04/20 11:39:11;;;;;;;7.25;6.95;;;;;;;14.28;37.39;100288.16;5039456;28;20048;-64
2022/04/20 11:41:48;;;;;;;6.47;6.18;;;;;;;13.75;37.55;100280.91;5050893;28;20025;-64
2022/04/20 11:44:46;;;;;;;6.60;6.30;;;;;;;14.34;36.53;100282.03;5063017;28;20025;-64
2022/04/20 11:47:12;;;;;;;6.65;6.35;;;;;;;14.71;35.30;100279.78;5046029;28;20041;-65
2022/04/20 11:49:43;;;;;;;6.38;6.07;;;;;;;14.18;36.00;100277.91;5051103;28;20028;-63
2022/04/20 11:52:11;;;;;;;6.88;6.57;;;;;;;13.74;35.32;100270.47;5057154;28;20029;-64
2022/04/20 11:54:38;;;;;;;6.53;6.22;;;;;;;14.33;36.51;100269.72;5060492;28;20021;-64
2022/04/20 11:57:06;;;;;;;6.55;6.25;;;;;;;14.06;37.65;100261.69;5053064;28;20504;-64
2022/04/20 11:59:31;;;;;;;6.90;6.60;;;;;;;13.95;36.99;100258.78;5063794;28;20037;-63
2022/04/20 12:01:57;;;;;;;7.20;6.90;;;;;;;14.43;34.58;100266.63;5048521;28;20078;-64
2022/04/20 12:04:27;;;;;;;6.97;6.68;;;;;;;14.49;34.81;100258.63;5049016;28;20036;-64
2022/04/20 12:06:55;;;;;;;6.45;6.15;;;;;;;14.84;34.35;100255.72;5054516;28;22545;-63